Amity, Missouri
Current Conditions -  °F | °C
As of 6:53 AM on Friday 28 Nov 2014 (Local Time) from KSTJ Reporting Station
Clear Clear  
Wind Chill: 23°   Ceiling: Unl
Heat Index: 30°   Visibility: 10mi
Dew Point: 23°   Wind: 7mph
Humidity: 75%   Direction: 180°S
Pressure: 30.01"   Gusts: NA
Location:  39.87°N, 94.44°W
Report Text: KSTJ 281253Z 18006KT 10SM CLR M01/M05 A3001 RMK AO2 SLP169 T10111050
Loading
Personal Weather Stations






























Interactive Weather Map New forecast layout! Learn more

10-Day Weather Forecast

Advertisements
Track Severe Weather on mobile